createdAt,value
2017-05-15T00:00:02.944Z,9.3
2017-05-15T00:05:03.275Z,9.3
2017-05-15T00:10:03.125Z,9.5
2017-05-15T00:15:02.838Z,9.6
2017-05-15T00:20:02.584Z,9.5
2017-05-15T00:25:03.221Z,9.5
2017-05-15T00:30:03.005Z,9.3
2017-05-15T00:35:02.625Z,9.5
2017-05-15T00:40:02.425Z,9.6
2017-05-15T00:45:03.110Z,9.5
2017-05-15T00:50:02.950Z,9.1
2017-05-15T00:55:02.673Z,9.0
2017-05-15T01:00:03.272Z,9.3
2017-05-15T01:05:03.040Z,9.3
2017-05-15T01:10:02.728Z,9.8
2017-05-15T01:15:03.350Z,9.8
2017-05-15T01:20:03.100Z,9.5
2017-05-15T01:25:02.858Z,9.3
2017-05-15T01:30:02.459Z,9.5
2017-05-15T01:35:03.082Z,9.6
2017-05-15T01:40:02.794Z,9.5
2017-05-15T01:45:02.448Z,9.5
2017-05-15T01:50:03.065Z,9.5
2017-05-15T01:55:02.960Z,9.1
2017-05-15T02:00:02.562Z,9.1
2017-05-15T02:05:03.188Z,9.1
2017-05-15T02:10:02.975Z,8.8
2017-05-15T02:15:02.796Z,8.5
2017-05-15T02:20:02.614Z,8.5
2017-05-15T02:25:03.317Z,8.3
2017-05-15T02:30:02.987Z,8.3
2017-05-15T02:35:02.676Z,8.1
2017-05-15T02:40:02.533Z,8.1
2017-05-15T02:45:03.161Z,8.0
2017-05-15T02:50:02.964Z,7.9
2017-05-15T02:55:02.739Z,7.6
2017-05-15T03:00:02.510Z,7.5
2017-05-15T03:05:03.274Z,7.5
2017-05-15T03:10:02.946Z,7.4
2017-05-15T03:15:02.519Z,7.4
2017-05-15T03:20:03.250Z,7.4
2017-05-15T03:25:02.813Z,7.4
2017-05-15T03:30:02.636Z,7.6
2017-05-15T03:35:03.406Z,7.6
2017-05-15T03:40:03.140Z,7.5
2017-05-15T03:45:02.764Z,7.4
2017-05-15T03:50:02.442Z,7.5
2017-05-15T03:55:03.116Z,7.6
2017-05-15T04:00:02.838Z,7.6
2017-05-15T04:05:02.546Z,7.6
2017-05-15T04:10:03.383Z,7.6
2017-05-15T04:15:03.097Z,8.0
2017-05-15T04:20:02.801Z,8.1
2017-05-15T04:25:02.524Z,8.1
2017-05-15T04:30:02.494Z,8.5
2017-05-15T04:35:03.169Z,8.5
2017-05-15T04:40:02.996Z,8.5
2017-05-15T04:45:02.685Z,8.5
2017-05-15T04:50:02.515Z,8.8
2017-05-15T04:55:03.245Z,9.0
2017-05-15T05:00:02.933Z,9.0
2017-05-15T05:05:02.770Z,9.1
2017-05-15T05:10:02.532Z,9.3
2017-05-15T05:15:03.326Z,9.3
2017-05-15T05:20:02.942Z,9.6
2017-05-15T05:25:02.617Z,10.0
2017-05-15T05:30:03.232Z,10.0
2017-05-15T05:35:02.941Z,10.1
2017-05-15T05:40:02.685Z,10.1
2017-05-15T05:45:03.356Z,10.1
2017-05-15T05:50:02.965Z,10.5
2017-05-15T05:55:02.594Z,10.8
2017-05-15T06:00:03.191Z,11.1
2017-05-15T06:05:02.913Z,11.3
2017-05-15T06:10:02.693Z,11.6
2017-05-15T06:15:02.441Z,11.6
2017-05-15T06:20:03.090Z,11.8
2017-05-15T06:25:02.811Z,12.1
2017-05-15T06:30:02.506Z,12.3
2017-05-15T06:35:03.271Z,12.3
2017-05-15T06:40:03.053Z,12.3
2017-05-15T06:45:02.845Z,12.8
2017-05-15T06:50:02.465Z,12.8
2017-05-15T06:55:03.166Z,13.1
2017-05-15T07:00:02.976Z,13.1
2017-05-15T07:05:02.585Z,13.3
2017-05-15T07:10:03.382Z,13.6
2017-05-15T07:15:03.169Z,13.6
2017-05-15T07:20:02.898Z,14.0
2017-05-15T07:25:02.662Z,14.0
2017-05-15T07:30:02.537Z,14.3
2017-05-15T07:35:03.131Z,15.0
2017-05-15T07:40:02.887Z,15.1
2017-05-15T07:45:02.747Z,15.5
2017-05-15T07:50:02.682Z,15.6
2017-05-15T07:55:03.305Z,16.2
2017-05-15T08:00:03.118Z,16.2
2017-05-15T08:05:02.839Z,16.6
2017-05-15T08:10:02.524Z,16.3
2017-05-15T08:15:03.403Z,16.2
2017-05-15T08:20:03.247Z,17.1
2017-05-15T08:25:02.951Z,17.1
2017-05-15T08:30:02.790Z,17.5
2017-05-15T08:35:02.659Z,18.1
2017-05-15T08:40:02.510Z,18.2
2017-05-15T08:45:03.294Z,18.6
2017-05-15T08:50:02.874Z,19.5
2017-05-15T08:55:02.496Z,19.0
2017-05-15T09:00:03.131Z,19.0
2017-05-15T09:05:02.857Z,19.0
2017-05-15T09:10:03.025Z,19.2
2017-05-15T09:15:03.021Z,19.7
2017-05-15T09:20:02.642Z,19.0
2017-05-15T09:25:02.455Z,19.5
2017-05-15T09:30:03.130Z,19.1
2017-05-15T09:35:02.754Z,19.3
2017-05-15T09:40:02.601Z,20.1
2017-05-15T09:45:02.446Z,20.7
2017-05-15T09:50:03.089Z,20.1
2017-05-15T09:55:02.853Z,20.2
2017-05-15T10:00:02.502Z,20.6
2017-05-15T10:05:03.231Z,19.7
2017-05-15T10:10:02.909Z,20.2
2017-05-15T10:15:02.477Z,20.3
2017-05-15T10:20:03.107Z,20.8
2017-05-15T10:25:07.840Z,21.5
2017-05-15T10:30:02.887Z,21.8
2017-05-15T10:35:02.864Z,21.7
2017-05-15T10:40:03.322Z,21.3
2017-05-15T10:45:03.101Z,21.7
2017-05-15T10:50:02.867Z,21.5
2017-05-15T10:55:02.585Z,21.3
2017-05-15T11:00:03.275Z,21.2
2017-05-15T11:05:02.912Z,20.7
2017-05-15T11:10:02.769Z,22.0
2017-05-15T11:15:02.445Z,21.6
2017-05-15T11:20:03.079Z,21.8
2017-05-15T11:25:02.806Z,21.5
2017-05-15T11:30:02.741Z,21.7
2017-05-15T11:35:02.420Z,21.7
2017-05-15T11:40:02.470Z,21.6
2017-05-15T11:45:02.620Z,22.3
2017-05-15T11:50:02.509Z,22.0
2017-05-15T11:55:03.333Z,20.8
2017-05-15T12:00:03.295Z,21.7
2017-05-15T12:05:02.960Z,22.2
2017-05-15T12:10:03.109Z,23.0
2017-05-15T12:15:03.384Z,22.2
2017-05-15T12:20:02.839Z,22.2
2017-05-15T12:25:03.107Z,23.3
2017-05-15T12:30:03.160Z,23.6
2017-05-15T12:35:03.419Z,22.7
2017-05-15T12:40:02.402Z,22.7
2017-05-15T12:45:02.790Z,22.5
2017-05-15T12:50:03.282Z,22.7
2017-05-15T12:55:03.370Z,23.1
2017-05-15T13:00:03.217Z,23.0
2017-05-15T13:05:02.895Z,23.1
2017-05-15T13:10:03.169Z,22.7
2017-05-15T13:15:03.083Z,24.2
2017-05-15T13:20:03.090Z,24.0
2017-05-15T13:25:02.447Z,23.7
2017-05-15T13:30:02.889Z,23.6
2017-05-15T13:35:03.219Z,25.1
2017-05-15T13:40:02.921Z,24.6
2017-05-15T13:45:02.899Z,23.2
2017-05-15T13:50:02.579Z,23.2
2017-05-15T13:55:02.509Z,24.8
2017-05-15T14:00:02.504Z,25.0
2017-05-15T14:05:02.922Z,24.2
2017-05-15T14:10:03.359Z,25.0
2017-05-15T14:15:05.241Z,24.2
2017-05-15T14:20:02.634Z,25.0
2017-05-15T14:25:02.971Z,25.0
2017-05-15T14:30:03.326Z,24.3
2017-05-15T14:35:03.284Z,24.7
2017-05-15T14:40:03.517Z,25.2
2017-05-15T14:45:02.864Z,25.5
2017-05-15T14:50:02.570Z,24.8
2017-05-15T14:55:02.641Z,25.2
2017-05-15T15:00:02.550Z,24.6
2017-05-15T15:05:02.859Z,24.2
2017-05-15T15:10:02.740Z,24.8
2017-05-15T15:15:03.382Z,24.8
2017-05-15T15:20:03.375Z,23.7
2017-05-15T15:25:02.868Z,24.6
2017-05-15T15:30:03.025Z,24.2
2017-05-15T15:35:03.024Z,24.2
2017-05-15T15:40:03.363Z,25.0
2017-05-15T15:45:03.366Z,24.8
2017-05-15T15:50:03.224Z,25.3
2017-05-15T15:55:02.701Z,23.8
2017-05-15T16:00:03.341Z,24.0
2017-05-15T16:05:03.183Z,23.8
2017-05-15T16:10:02.954Z,23.7
2017-05-15T16:15:03.000Z,22.1
2017-05-15T16:20:02.699Z,23.0
2017-05-15T16:25:02.942Z,24.2
2017-05-15T16:30:02.666Z,22.7
2017-05-15T16:35:02.397Z,22.3
2017-05-15T16:40:03.114Z,22.3
2017-05-15T16:45:02.789Z,23.3
2017-05-15T16:50:02.455Z,23.1
2017-05-15T16:55:03.235Z,23.2
2017-05-15T17:00:02.828Z,22.7
2017-05-15T17:05:02.756Z,22.7
2017-05-15T17:10:02.531Z,23.2
2017-05-15T17:15:03.116Z,22.5
2017-05-15T17:20:02.867Z,22.1
2017-05-15T17:25:02.481Z,22.0
2017-05-15T17:30:03.328Z,21.7
2017-05-15T17:35:02.945Z,21.6
2017-05-15T17:40:02.746Z,21.6
2017-05-15T17:45:02.588Z,21.6
2017-05-15T17:50:03.285Z,21.5
2017-05-15T17:55:03.012Z,21.2
2017-05-15T18:00:02.897Z,21.2
2017-05-15T18:05:02.720Z,21.0
2017-05-15T18:10:03.356Z,20.8
2017-05-15T18:15:03.010Z,20.8
2017-05-15T18:20:02.925Z,20.8
2017-05-15T18:25:03.004Z,20.7
2017-05-15T18:30:02.923Z,20.3
2017-05-15T18:35:03.170Z,20.3
2017-05-15T18:40:03.164Z,20.2
2017-05-15T18:45:03.253Z,20.2
2017-05-15T18:50:03.193Z,20.2
2017-05-15T18:55:02.657Z,20.2
2017-05-15T19:00:03.059Z,20.1
2017-05-15T19:05:02.663Z,20.0
2017-05-15T19:10:02.604Z,19.7
2017-05-15T19:15:02.536Z,19.7
2017-05-15T19:20:02.793Z,19.5
2017-05-15T19:25:02.899Z,19.5
2017-05-15T19:30:03.219Z,19.3
2017-05-15T19:35:02.708Z,19.3
2017-05-15T19:40:02.855Z,19.2
2017-05-15T19:45:02.921Z,19.2
2017-05-15T19:50:02.810Z,19.2
2017-05-15T19:55:03.126Z,19.2
2017-05-15T20:00:03.205Z,19.0
2017-05-15T20:05:03.004Z,19.0
2017-05-15T20:10:03.127Z,19.0
2017-05-15T20:15:02.685Z,18.8
2017-05-15T20:20:02.666Z,18.8
2017-05-15T20:25:02.690Z,18.8
2017-05-15T20:30:02.463Z,18.8
2017-05-15T20:35:02.515Z,18.8
2017-05-15T20:40:02.979Z,18.8
2017-05-15T20:45:02.951Z,18.8
2017-05-15T20:50:02.400Z,18.7
2017-05-15T20:55:03.060Z,18.6
2017-05-15T21:00:02.828Z,18.6
2017-05-15T21:05:02.776Z,18.5
2017-05-15T21:10:03.292Z,18.5
2017-05-15T21:15:03.382Z,18.5
2017-05-15T21:20:02.512Z,18.2
2017-05-15T21:25:02.631Z,18.2
2017-05-15T21:30:02.765Z,18.2
2017-05-15T21:35:02.668Z,18.2
2017-05-15T21:40:03.345Z,18.2
2017-05-15T21:45:03.069Z,18.2
2017-05-15T21:50:02.840Z,18.2
2017-05-15T21:55:02.442Z,18.2
2017-05-15T22:00:03.175Z,18.2
2017-05-15T22:05:03.114Z,18.1
2017-05-15T22:10:03.007Z,18.2
2017-05-15T22:15:02.630Z,18.2
2017-05-15T22:20:02.427Z,18.2
2017-05-15T22:25:03.254Z,18.2
2017-05-15T22:30:03.268Z,18.2
2017-05-15T22:35:03.073Z,18.2
2017-05-15T22:40:02.804Z,18.2
2017-05-15T22:45:02.455Z,18.2
2017-05-15T22:50:03.262Z,18.2
2017-05-15T22:55:02.837Z,18.2
2017-05-15T23:00:02.622Z,18.2
2017-05-15T23:05:03.182Z,18.2
2017-05-15T23:10:02.897Z,18.1
2017-05-15T23:15:05.576Z,17.8
2017-05-15T23:20:03.154Z,17.8
2017-05-15T23:25:02.913Z,17.8
2017-05-15T23:30:02.823Z,17.7
2017-05-15T23:35:02.455Z,17.8
2017-05-15T23:41:06.195Z,17.7
2017-05-15T23:45:02.749Z,17.7
2017-05-15T23:50:02.486Z,17.7
2017-05-15T23:55:03.259Z,17.7
